sensor_id;sensor_type;location;lat;lon;timestamp;temperature;humidity
57719;DHT22;43561;50.090;18.522;2023-06-14T00:03:11;10.50;99.90
57719;DHT22;43561;50.090;18.522;2023-06-14T00:13:19;10.30;99.90
57719;DHT22;43561;50.090;18.522;2023-06-14T00:23:26;10.30;99.90
57719;DHT22;43561;50.090;18.522;2023-06-14T00:33:28;10.10;99.90
57719;DHT22;43561;50.090;18.522;2023-06-14T00:43:30;9.90;99.90
57719;DHT22;43561;50.090;18.522;2023-06-14T00:53:42;9.80;99.90
57719;DHT22;43561;50.090;18.522;2023-06-14T01:03:45;9.70;99.90
57719;DHT22;43561;50.090;18.522;2023-06-14T01:13:49;9.70;99.90
57719;DHT22;43561;50.090;18.522;2023-06-14T01:23:53;9.60;99.90
57719;DHT22;43561;50.090;18.522;2023-06-14T01:33:55;9.50;99.90
57719;DHT22;43561;50.090;18.522;2023-06-14T01:43:58;9.70;99.90
57719;DHT22;43561;50.090;18.522;2023-06-14T01:54:01;9.80;99.90
57719;DHT22;43561;50.090;18.522;2023-06-14T02:04:03;9.70;99.90
57719;DHT22;43561;50.090;18.522;2023-06-14T02:25:08;9.70;99.90
57719;DHT22;43561;50.090;18.522;2023-06-14T02:35:10;9.70;99.90
57719;DHT22;43561;50.090;18.522;2023-06-14T02:45:20;9.80;99.90
57719;DHT22;43561;50.090;18.522;2023-06-14T02:55:23;9.90;99.90
57719;DHT22;43561;50.090;18.522;2023-06-14T03:05:26;9.90;99.90
57719;DHT22;43561;50.090;18.522;2023-06-14T03:26:43;10.30;99.90
57719;DHT22;43561;50.090;18.522;2023-06-14T03:36:46;10.40;99.90
57719;DHT22;43561;50.090;18.522;2023-06-14T03:46:48;10.30;99.90
57719;DHT22;43561;50.090;18.522;2023-06-14T03:56:51;10.20;99.90
57719;DHT22;43561;50.090;18.522;2023-06-14T04:06:53;10.30;99.90
57719;DHT22;43561;50.090;18.522;2023-06-14T04:16:55;10.30;99.90
57719;DHT22;43561;50.090;18.522;2023-06-14T04:26:58;10.60;99.90
57719;DHT22;43561;50.090;18.522;2023-06-14T04:37:01;10.50;99.90
57719;DHT22;43561;50.090;18.522;2023-06-14T04:47:07;10.70;99.90
57719;DHT22;43561;50.090;18.522;2023-06-14T04:57:10;11.00;99.90
57719;DHT22;43561;50.090;18.522;2023-06-14T05:07:15;13.20;99.90
57719;DHT22;43561;50.090;18.522;2023-06-14T05:17:23;13.40;99.90
57719;DHT22;43561;50.090;18.522;2023-06-14T05:27:25;12.70;99.90
57719;DHT22;43561;50.090;18.522;2023-06-14T05:37:29;12.60;99.90
57719;DHT22;43561;50.090;18.522;2023-06-14T05:47:31;12.20;99.90
57719;DHT22;43561;50.090;18.522;2023-06-14T05:57:33;12.30;99.90
57719;DHT22;43561;50.090;18.522;2023-06-14T06:07:36;12.10;99.90
57719;DHT22;43561;50.090;18.522;2023-06-14T06:17:39;12.40;99.90
57719;DHT22;43561;50.090;18.522;2023-06-14T06:27:57;12.80;99.90
57719;DHT22;43561;50.090;18.522;2023-06-14T06:38:00;12.70;99.90
57719;DHT22;43561;50.090;18.522;2023-06-14T06:48:01;12.60;99.90
57719;DHT22;43561;50.090;18.522;2023-06-14T06:58:04;12.90;99.90
57719;DHT22;43561;50.090;18.522;2023-06-14T07:08:06;12.80;99.90
57719;DHT22;43561;50.090;18.522;2023-06-14T07:18:08;13.00;99.90
57719;DHT22;43561;50.090;18.522;2023-06-14T07:28:10;12.90;99.90
57719;DHT22;43561;50.090;18.522;2023-06-14T07:38:12;13.10;99.90
57719;DHT22;43561;50.090;18.522;2023-06-14T07:48:14;13.20;99.90
57719;DHT22;43561;50.090;18.522;2023-06-14T07:58:16;13.30;99.90
57719;DHT22;43561;50.090;18.522;2023-06-14T08:08:18;13.70;99.90
57719;DHT22;43561;50.090;18.522;2023-06-14T08:18:20;14.20;99.90
57719;DHT22;43561;50.090;18.522;2023-06-14T08:28:32;13.40;99.90
57719;DHT22;43561;50.090;18.522;2023-06-14T08:38:34;14.00;99.90
57719;DHT22;43561;50.090;18.522;2023-06-14T08:48:36;14.60;99.90
57719;DHT22;43561;50.090;18.522;2023-06-14T08:58:49;14.90;99.90
57719;DHT22;43561;50.090;18.522;2023-06-14T09:08:51;14.90;99.90
57719;DHT22;43561;50.090;18.522;2023-06-14T09:18:54;15.70;99.90
57719;DHT22;43561;50.090;18.522;2023-06-14T09:28:56;15.10;99.90
57719;DHT22;43561;50.090;18.522;2023-06-14T09:39:03;15.00;99.90
57719;DHT22;43561;50.090;18.522;2023-06-14T09:49:06;15.30;99.90
57719;DHT22;43561;50.090;18.522;2023-06-14T09:59:09;16.70;99.90
57719;DHT22;43561;50.090;18.522;2023-06-14T10:09:13;17.70;99.90
57719;DHT22;43561;50.090;18.522;2023-06-14T10:29:27;18.10;99.90
57719;DHT22;43561;50.090;18.522;2023-06-14T10:39:29;17.80;99.90
57719;DHT22;43561;50.090;18.522;2023-06-14T10:49:43;17.80;99.90
57719;DHT22;43561;50.090;18.522;2023-06-14T10:59:50;18.40;99.90
57719;DHT22;43561;50.090;18.522;2023-06-14T11:20:32;18.70;99.90
57719;DHT22;43561;50.090;18.522;2023-06-14T11:30:35;18.70;99.90
57719;DHT22;43561;50.090;18.522;2023-06-14T11:41:11;18.40;99.90
57719;DHT22;43561;50.090;18.522;2023-06-14T11:51:14;17.60;99.90
57719;DHT22;43561;50.090;18.522;2023-06-14T12:01:17;18.20;99.90
57719;DHT22;43561;50.090;18.522;2023-06-14T12:11:21;18.50;99.90
57719;DHT22;43561;50.090;18.522;2023-06-14T12:21:23;19.00;99.90
57719;DHT22;43561;50.090;18.522;2023-06-14T12:31:25;18.20;99.90
57719;DHT22;43561;50.090;18.522;2023-06-14T12:41:27;18.40;99.90
57719;DHT22;43561;50.090;18.522;2023-06-14T12:51:29;18.50;99.90
57719;DHT22;43561;50.090;18.522;2023-06-14T13:01:31;18.30;99.90
57719;DHT22;43561;50.090;18.522;2023-06-14T13:11:36;18.30;99.90
57719;DHT22;43561;50.090;18.522;2023-06-14T13:21:38;18.30;99.90
57719;DHT22;43561;50.090;18.522;2023-06-14T13:32:10;18.50;99.90
57719;DHT22;43561;50.090;18.522;2023-06-14T13:42:13;19.30;99.90
57719;DHT22;43561;50.090;18.522;2023-06-14T13:52:16;18.70;99.90
57719;DHT22;43561;50.090;18.522;2023-06-14T14:02:31;18.30;99.90
57719;DHT22;43561;50.090;18.522;2023-06-14T14:12:33;18.90;99.80
57719;DHT22;43561;50.090;18.522;2023-06-14T14:22:42;18.00;99.90
57719;DHT22;43561;50.090;18.522;2023-06-14T14:32:48;18.30;99.90
57719;DHT22;43561;50.090;18.522;2023-06-14T14:42:56;18.30;99.90
57719;DHT22;43561;50.090;18.522;2023-06-14T14:52:58;18.30;99.90
57719;DHT22;43561;50.090;18.522;2023-06-14T15:03:05;17.90;99.90
57719;DHT22;43561;50.090;18.522;2023-06-14T15:13:08;18.20;99.90
57719;DHT22;43561;50.090;18.522;2023-06-14T15:23:10;17.80;99.90
57719;DHT22;43561;50.090;18.522;2023-06-14T15:33:14;18.00;99.90
57719;DHT22;43561;50.090;18.522;2023-06-14T15:43:17;18.30;99.90
57719;DHT22;43561;50.090;18.522;2023-06-14T15:53:19;18.00;99.90
57719;DHT22;43561;50.090;18.522;2023-06-14T16:03:21;18.30;99.90
57719;DHT22;43561;50.090;18.522;2023-06-14T16:13:36;18.60;99.90
57719;DHT22;43561;50.090;18.522;2023-06-14T16:24:03;18.30;99.90
57719;DHT22;43561;50.090;18.522;2023-06-14T16:34:08;17.80;99.90
57719;DHT22;43561;50.090;18.522;2023-06-14T16:44:19;17.60;99.90
57719;DHT22;43561;50.090;18.522;2023-06-14T16:54:35;17.60;99.90
57719;DHT22;43561;50.090;18.522;2023-06-14T17:27:35;17.10;99.90
57719;DHT22;43561;50.090;18.522;2023-06-14T17:49:16;17.10;99.90
57719;DHT22;43561;50.090;18.522;2023-06-14T17:59:24;16.70;99.90
57719;DHT22;43561;50.090;18.522;2023-06-14T18:22:03;16.00;99.90
57719;DHT22;43561;50.090;18.522;2023-06-14T18:55:32;15.60;99.90
57719;DHT22;43561;50.090;18.522;2023-06-14T19:06:16;15.30;99.90
57719;DHT22;43561;50.090;18.522;2023-06-14T19:16:18;15.10;99.90
57719;DHT22;43561;50.090;18.522;2023-06-14T19:26:22;15.00;99.90
57719;DHT22;43561;50.090;18.522;2023-06-14T19:36:24;14.70;99.90
57719;DHT22;43561;50.090;18.522;2023-06-14T19:46:26;14.50;99.90
57719;DHT22;43561;50.090;18.522;2023-06-14T19:56:28;14.20;99.90
57719;DHT22;43561;50.090;18.522;2023-06-14T20:06:30;14.20;99.90
57719;DHT22;43561;50.090;18.522;2023-06-14T20:16:32;14.20;99.90
57719;DHT22;43561;50.090;18.522;2023-06-14T20:26:36;14.00;99.90
57719;DHT22;43561;50.090;18.522;2023-06-14T20:36:38;13.70;99.90
57719;DHT22;43561;50.090;18.522;2023-06-14T20:46:40;13.50;99.90
57719;DHT22;43561;50.090;18.522;2023-06-14T20:56:42;13.40;99.90
57719;DHT22;43561;50.090;18.522;2023-06-14T21:06:44;13.20;99.90
57719;DHT22;43561;50.090;18.522;2023-06-14T21:16:45;13.00;99.90
57719;DHT22;43561;50.090;18.522;2023-06-14T21:26:51;12.80;99.90
57719;DHT22;43561;50.090;18.522;2023-06-14T21:36:56;12.60;99.90
57719;DHT22;43561;50.090;18.522;2023-06-14T21:46:59;12.70;99.90
57719;DHT22;43561;50.090;18.522;2023-06-14T21:57:03;12.70;99.90
57719;DHT22;43561;50.090;18.522;2023-06-14T22:07:05;12.50;99.90
57719;DHT22;43561;50.090;18.522;2023-06-14T22:17:09;12.50;99.90
57719;DHT22;43561;50.090;18.522;2023-06-14T22:27:11;12.40;99.90
57719;DHT22;43561;50.090;18.522;2023-06-14T22:37:22;12.30;99.90
57719;DHT22;43561;50.090;18.522;2023-06-14T22:47:24;12.10;99.90
57719;DHT22;43561;50.090;18.522;2023-06-14T22:57:27;12.00;99.90
57719;DHT22;43561;50.090;18.522;2023-06-14T23:07:29;12.00;99.90
57719;DHT22;43561;50.090;18.522;2023-06-14T23:17:31;12.10;99.90
57719;DHT22;43561;50.090;18.522;2023-06-14T23:27:34;12.20;99.90
57719;DHT22;43561;50.090;18.522;2023-06-14T23:37:36;12.20;99.90
57719;DHT22;43561;50.090;18.522;2023-06-14T23:47:38;12.30;99.90
57719;DHT22;43561;50.090;18.522;2023-06-14T23:57:40;12.20;99.90
